sensor_id;sensor_type;location;lat;lon;timestamp;P1;durP1;ratioP1;P2;durP2;ratioP2
18280;SDS011;9266;51.132;17.062;2023-02-13T00:00:57;26.73;;;14.73;;
18280;SDS011;9266;51.132;17.062;2023-02-13T00:03:24;24.97;;;15.97;;
18280;SDS011;9266;51.132;17.062;2023-02-13T00:05:51;25.67;;;15.17;;
18280;SDS011;9266;51.132;17.062;2023-02-13T00:08:18;25.47;;;15.50;;
18280;SDS011;9266;51.132;17.062;2023-02-13T00:10:49;28.00;;;16.23;;
18280;SDS011;9266;51.132;17.062;2023-02-13T00:13:16;25.77;;;16.43;;
18280;SDS011;9266;51.132;17.062;2023-02-13T00:15:43;25.27;;;15.40;;
18280;SDS011;9266;51.132;17.062;2023-02-13T00:18:11;25.00;;;15.47;;
18280;SDS011;9266;51.132;17.062;2023-02-13T00:20:38;27.17;;;14.80;;
18280;SDS011;9266;51.132;17.062;2023-02-13T00:23:05;25.87;;;15.27;;
18280;SDS011;9266;51.132;17.062;2023-02-13T00:25:32;26.47;;;15.17;;
18280;SDS011;9266;51.132;17.062;2023-02-13T00:28:00;23.50;;;14.57;;
18280;SDS011;9266;51.132;17.062;2023-02-13T00:30:27;24.03;;;14.23;;
18280;SDS011;9266;51.132;17.062;2023-02-13T00:32:54;23.27;;;14.27;;
18280;SDS011;9266;51.132;17.062;2023-02-13T00:35:22;20.33;;;13.93;;
18280;SDS011;9266;51.132;17.062;2023-02-13T00:37:49;23.97;;;13.63;;
18280;SDS011;9266;51.132;17.062;2023-02-13T00:40:16;22.23;;;13.77;;
18280;SDS011;9266;51.132;17.062;2023-02-13T00:42:43;18.50;;;13.27;;
18280;SDS011;9266;51.132;17.062;2023-02-13T00:45:11;20.97;;;12.73;;
18280;SDS011;9266;51.132;17.062;2023-02-13T00:47:38;23.40;;;13.93;;
18280;SDS011;9266;51.132;17.062;2023-02-13T00:50:06;20.27;;;12.33;;
18280;SDS011;9266;51.132;17.062;2023-02-13T00:52:33;18.10;;;11.30;;
18280;SDS011;9266;51.132;17.062;2023-02-13T00:55:00;16.07;;;12.00;;
18280;SDS011;9266;51.132;17.062;2023-02-13T00:57:27;24.40;;;12.30;;
18280;SDS011;9266;51.132;17.062;2023-02-13T00:59:55;17.33;;;11.90;;
18280;SDS011;9266;51.132;17.062;2023-02-13T01:02:25;19.70;;;12.20;;
18280;SDS011;9266;51.132;17.062;2023-02-13T01:04:52;17.37;;;11.90;;
18280;SDS011;9266;51.132;17.062;2023-02-13T01:07:19;19.50;;;12.53;;
18280;SDS011;9266;51.132;17.062;2023-02-13T01:09:46;17.83;;;11.97;;
18280;SDS011;9266;51.132;17.062;2023-02-13T01:12:13;17.53;;;12.10;;
18280;SDS011;9266;51.132;17.062;2023-02-13T01:14:40;20.43;;;12.13;;
18280;SDS011;9266;51.132;17.062;2023-02-13T01:17:07;18.90;;;12.10;;
18280;SDS011;9266;51.132;17.062;2023-02-13T01:19:36;19.90;;;12.10;;
18280;SDS011;9266;51.132;17.062;2023-02-13T01:22:03;18.03;;;11.27;;
18280;SDS011;9266;51.132;17.062;2023-02-13T01:24:30;20.03;;;12.00;;
18280;SDS011;9266;51.132;17.062;2023-02-13T01:26:58;19.07;;;11.40;;
18280;SDS011;9266;51.132;17.062;2023-02-13T01:29:26;19.97;;;12.10;;
18280;SDS011;9266;51.132;17.062;2023-02-13T01:31:53;17.73;;;11.50;;
18280;SDS011;9266;51.132;17.062;2023-02-13T01:34:20;18.27;;;11.17;;
18280;SDS011;9266;51.132;17.062;2023-02-13T01:36:49;18.67;;;12.00;;
18280;SDS011;9266;51.132;17.062;2023-02-13T01:39:16;20.23;;;12.77;;
18280;SDS011;9266;51.132;17.062;2023-02-13T01:41:43;18.23;;;12.20;;
18280;SDS011;9266;51.132;17.062;2023-02-13T01:47:12;20.27;;;12.53;;
18280;SDS011;9266;51.132;17.062;2023-02-13T01:49:43;19.17;;;11.40;;
18280;SDS011;9266;51.132;17.062;2023-02-13T01:52:13;18.63;;;11.83;;
18280;SDS011;9266;51.132;17.062;2023-02-13T01:54:41;20.37;;;12.90;;
18280;SDS011;9266;51.132;17.062;2023-02-13T01:57:11;19.43;;;11.50;;
18280;SDS011;9266;51.132;17.062;2023-02-13T01:59:42;17.53;;;10.73;;
18280;SDS011;9266;51.132;17.062;2023-02-13T02:02:13;20.97;;;11.93;;
18280;SDS011;9266;51.132;17.062;2023-02-13T02:04:40;16.30;;;11.17;;
18280;SDS011;9266;51.132;17.062;2023-02-13T02:07:11;16.70;;;11.33;;
18280;SDS011;9266;51.132;17.062;2023-02-13T02:09:44;17.83;;;12.00;;
18280;SDS011;9266;51.132;17.062;2023-02-13T02:12:13;17.57;;;11.53;;
18280;SDS011;9266;51.132;17.062;2023-02-13T02:14:45;19.93;;;12.03;;
18280;SDS011;9266;51.132;17.062;2023-02-13T02:17:14;17.20;;;11.63;;
18280;SDS011;9266;51.132;17.062;2023-02-13T02:19:43;17.63;;;11.43;;
18280;SDS011;9266;51.132;17.062;2023-02-13T02:22:32;19.97;;;11.33;;
18280;SDS011;9266;51.132;17.062;2023-02-13T02:31:50;19.10;;;12.40;;
18280;SDS011;9266;51.132;17.062;2023-02-13T02:34:30;17.83;;;11.47;;
18280;SDS011;9266;51.132;17.062;2023-02-13T02:37:10;15.30;;;11.50;;
18280;SDS011;9266;51.132;17.062;2023-02-13T02:39:49;18.60;;;12.63;;
18280;SDS011;9266;51.132;17.062;2023-02-13T02:42:26;18.90;;;13.23;;
18280;SDS011;9266;51.132;17.062;2023-02-13T02:45:01;20.50;;;13.03;;
18280;SDS011;9266;51.132;17.062;2023-02-13T02:47:38;19.63;;;13.43;;
18280;SDS011;9266;51.132;17.062;2023-02-13T02:50:32;18.73;;;13.47;;
18280;SDS011;9266;51.132;17.062;2023-02-13T02:53:06;20.47;;;12.93;;
18280;SDS011;9266;51.132;17.062;2023-02-13T02:55:53;18.63;;;12.83;;
18280;SDS011;9266;51.132;17.062;2023-02-13T02:58:27;24.93;;;13.93;;
18280;SDS011;9266;51.132;17.062;2023-02-13T03:01:17;21.67;;;14.23;;
18280;SDS011;9266;51.132;17.062;2023-02-13T03:04:08;20.13;;;13.53;;
18280;SDS011;9266;51.132;17.062;2023-02-13T03:06:58;22.30;;;13.73;;
18280;SDS011;9266;51.132;17.062;2023-02-13T03:09:33;22.13;;;14.23;;
18280;SDS011;9266;51.132;17.062;2023-02-13T03:12:22;20.87;;;14.57;;
18280;SDS011;9266;51.132;17.062;2023-02-13T03:15:11;22.13;;;14.00;;
18280;SDS011;9266;51.132;17.062;2023-02-13T03:17:38;22.17;;;14.70;;
18280;SDS011;9266;51.132;17.062;2023-02-13T03:20:28;22.30;;;15.27;;
18280;SDS011;9266;51.132;17.062;2023-02-13T03:23:22;23.57;;;15.10;;
18280;SDS011;9266;51.132;17.062;2023-02-13T03:29:11;23.20;;;14.37;;
18280;SDS011;9266;51.132;17.062;2023-02-13T03:32:05;22.00;;;14.70;;
18280;SDS011;9266;51.132;17.062;2023-02-13T03:34:40;23.97;;;15.53;;
18280;SDS011;9266;51.132;17.062;2023-02-13T03:37:33;19.60;;;13.83;;
18280;SDS011;9266;51.132;17.062;2023-02-13T03:40:22;25.70;;;15.00;;
18280;SDS011;9266;51.132;17.062;2023-02-13T03:42:57;23.37;;;15.00;;
18280;SDS011;9266;51.132;17.062;2023-02-13T03:45:30;25.37;;;15.13;;
18280;SDS011;9266;51.132;17.062;2023-02-13T03:48:22;23.80;;;15.47;;
18280;SDS011;9266;51.132;17.062;2023-02-13T03:51:10;22.33;;;15.53;;
18280;SDS011;9266;51.132;17.062;2023-02-13T03:53:41;28.83;;;16.03;;
18280;SDS011;9266;51.132;17.062;2023-02-13T03:56:12;28.93;;;16.00;;
18280;SDS011;9266;51.132;17.062;2023-02-13T03:58:59;24.80;;;16.43;;
18280;SDS011;9266;51.132;17.062;2023-02-13T04:01:42;26.27;;;16.67;;
18280;SDS011;9266;51.132;17.062;2023-02-13T04:04:16;27.47;;;18.53;;
18280;SDS011;9266;51.132;17.062;2023-02-13T04:06:49;24.80;;;17.37;;
18280;SDS011;9266;51.132;17.062;2023-02-13T04:09:21;29.07;;;18.60;;
18280;SDS011;9266;51.132;17.062;2023-02-13T04:11:52;26.17;;;17.37;;
18280;SDS011;9266;51.132;17.062;2023-02-13T04:14:24;30.60;;;19.23;;
18280;SDS011;9266;51.132;17.062;2023-02-13T04:16:58;28.40;;;19.17;;
18280;SDS011;9266;51.132;17.062;2023-02-13T04:19:30;30.77;;;19.13;;
18280;SDS011;9266;51.132;17.062;2023-02-13T04:21:58;28.67;;;18.70;;
18280;SDS011;9266;51.132;17.062;2023-02-13T04:24:28;30.07;;;19.93;;
18280;SDS011;9266;51.132;17.062;2023-02-13T04:26:55;33.60;;;20.33;;
18280;SDS011;9266;51.132;17.062;2023-02-13T04:29:23;31.77;;;20.60;;
18280;SDS011;9266;51.132;17.062;2023-02-13T04:31:51;31.47;;;21.37;;
18280;SDS011;9266;51.132;17.062;2023-02-13T04:34:19;33.67;;;21.13;;
18280;SDS011;9266;51.132;17.062;2023-02-13T04:36:46;31.80;;;21.17;;
18280;SDS011;9266;51.132;17.062;2023-02-13T04:39:13;35.97;;;21.93;;
18280;SDS011;9266;51.132;17.062;2023-02-13T04:41:42;34.27;;;21.77;;
18280;SDS011;9266;51.132;17.062;2023-02-13T04:44:09;30.60;;;21.37;;
18280;SDS011;9266;51.132;17.062;2023-02-13T04:46:36;30.23;;;20.50;;
18280;SDS011;9266;51.132;17.062;2023-02-13T04:49:03;36.07;;;21.33;;
18280;SDS011;9266;51.132;17.062;2023-02-13T04:51:30;29.87;;;21.00;;
18280;SDS011;9266;51.132;17.062;2023-02-13T04:53:57;33.57;;;21.80;;
18280;SDS011;9266;51.132;17.062;2023-02-13T04:56:24;30.53;;;21.53;;
18280;SDS011;9266;51.132;17.062;2023-02-13T04:58:53;31.47;;;20.53;;
18280;SDS011;9266;51.132;17.062;2023-02-13T05:01:21;32.80;;;21.83;;
18280;SDS011;9266;51.132;17.062;2023-02-13T05:03:48;33.90;;;21.87;;
18280;SDS011;9266;51.132;17.062;2023-02-13T05:06:15;34.43;;;21.47;;
18280;SDS011;9266;51.132;17.062;2023-02-13T05:08:42;35.53;;;22.37;;
18280;SDS011;9266;51.132;17.062;2023-02-13T05:11:09;29.83;;;19.93;;
18280;SDS011;9266;51.132;17.062;2023-02-13T05:13:36;30.17;;;20.70;;
18280;SDS011;9266;51.132;17.062;2023-02-13T05:16:05;28.67;;;19.70;;
18280;SDS011;9266;51.132;17.062;2023-02-13T05:18:32;32.37;;;20.10;;
18280;SDS011;9266;51.132;17.062;2023-02-13T05:20:59;29.23;;;19.63;;
18280;SDS011;9266;51.132;17.062;2023-02-13T05:23:44;30.83;;;19.43;;
18280;SDS011;9266;51.132;17.062;2023-02-13T05:26:11;29.23;;;19.93;;
18280;SDS011;9266;51.132;17.062;2023-02-13T05:28:38;29.23;;;19.47;;
18280;SDS011;9266;51.132;17.062;2023-02-13T05:31:24;30.43;;;19.20;;
18280;SDS011;9266;51.132;17.062;2023-02-13T05:33:51;30.80;;;19.63;;
18280;SDS011;9266;51.132;17.062;2023-02-13T05:36:20;29.80;;;20.10;;
18280;SDS011;9266;51.132;17.062;2023-02-13T05:38:47;28.80;;;19.20;;
18280;SDS011;9266;51.132;17.062;2023-02-13T05:41:14;27.97;;;17.17;;
18280;SDS011;9266;51.132;17.062;2023-02-13T05:43:41;27.33;;;16.47;;
18280;SDS011;9266;51.132;17.062;2023-02-13T05:46:09;24.03;;;16.53;;
18280;SDS011;9266;51.132;17.062;2023-02-13T05:48:38;26.80;;;16.50;;
18280;SDS011;9266;51.132;17.062;2023-02-13T05:51:05;22.80;;;16.97;;
18280;SDS011;9266;51.132;17.062;2023-02-13T05:53:33;29.07;;;18.07;;
18280;SDS011;9266;51.132;17.062;2023-02-13T05:56:00;27.83;;;17.80;;
18280;SDS011;9266;51.132;17.062;2023-02-13T05:58:29;28.10;;;16.87;;
18280;SDS011;9266;51.132;17.062;2023-02-13T06:00:57;28.73;;;18.53;;
18280;SDS011;9266;51.132;17.062;2023-02-13T06:03:25;26.90;;;18.03;;
18280;SDS011;9266;51.132;17.062;2023-02-13T06:05:55;29.27;;;18.80;;
18280;SDS011;9266;51.132;17.062;2023-02-13T06:08:22;31.03;;;19.20;;
18280;SDS011;9266;51.132;17.062;2023-02-13T06:10:50;33.50;;;19.63;;
18280;SDS011;9266;51.132;17.062;2023-02-13T06:13:17;29.70;;;18.83;;
18280;SDS011;9266;51.132;17.062;2023-02-13T06:15:45;28.33;;;19.60;;
18280;SDS011;9266;51.132;17.062;2023-02-13T06:18:12;27.37;;;18.83;;
18280;SDS011;9266;51.132;17.062;2023-02-13T06:20:39;28.10;;;18.33;;
18280;SDS011;9266;51.132;17.062;2023-02-13T06:23:07;32.80;;;19.33;;
18280;SDS011;9266;51.132;17.062;2023-02-13T06:25:34;28.00;;;17.80;;
18280;SDS011;9266;51.132;17.062;2023-02-13T06:28:04;29.60;;;18.60;;
18280;SDS011;9266;51.132;17.062;2023-02-13T06:30:31;29.70;;;18.07;;
18280;SDS011;9266;51.132;17.062;2023-02-13T06:32:58;27.30;;;17.30;;
18280;SDS011;9266;51.132;17.062;2023-02-13T06:35:26;33.53;;;18.10;;
18280;SDS011;9266;51.132;17.062;2023-02-13T06:37:53;29.50;;;18.33;;
18280;SDS011;9266;51.132;17.062;2023-02-13T06:40:21;27.87;;;18.83;;
18280;SDS011;9266;51.132;17.062;2023-02-13T06:42:48;29.90;;;18.67;;
18280;SDS011;9266;51.132;17.062;2023-02-13T06:45:16;29.80;;;18.47;;
18280;SDS011;9266;51.132;17.062;2023-02-13T06:47:43;31.80;;;19.87;;
18280;SDS011;9266;51.132;17.062;2023-02-13T06:50:12;33.13;;;20.47;;
18280;SDS011;9266;51.132;17.062;2023-02-13T06:52:44;29.87;;;19.03;;
18280;SDS011;9266;51.132;17.062;2023-02-13T06:55:12;31.17;;;18.47;;
18280;SDS011;9266;51.132;17.062;2023-02-13T06:57:40;28.63;;;18.17;;
18280;SDS011;9266;51.132;17.062;2023-02-13T07:00:08;28.27;;;19.07;;
18280;SDS011;9266;51.132;17.062;2023-02-13T07:02:37;30.77;;;19.60;;
18280;SDS011;9266;51.132;17.062;2023-02-13T07:05:05;29.93;;;18.23;;
18280;SDS011;9266;51.132;17.062;2023-02-13T07:07:33;26.50;;;18.27;;
18280;SDS011;9266;51.132;17.062;2023-02-13T07:10:01;28.90;;;18.77;;
18280;SDS011;9266;51.132;17.062;2023-02-13T07:12:28;27.70;;;17.13;;
18280;SDS011;9266;51.132;17.062;2023-02-13T07:14:59;25.20;;;17.40;;
18280;SDS011;9266;51.132;17.062;2023-02-13T07:17:26;26.83;;;17.97;;
18280;SDS011;9266;51.132;17.062;2023-02-13T07:19:53;30.33;;;18.93;;
18280;SDS011;9266;51.132;17.062;2023-02-13T07:22:20;31.13;;;18.17;;
18280;SDS011;9266;51.132;17.062;2023-02-13T07:24:47;29.93;;;18.00;;
18280;SDS011;9266;51.132;17.062;2023-02-13T07:27:14;30.93;;;18.77;;
18280;SDS011;9266;51.132;17.062;2023-02-13T07:29:41;27.37;;;17.33;;
18280;SDS011;9266;51.132;17.062;2023-02-13T07:32:09;28.70;;;18.20;;
18280;SDS011;9266;51.132;17.062;2023-02-13T07:34:36;26.83;;;17.87;;
18280;SDS011;9266;51.132;17.062;2023-02-13T07:37:03;26.47;;;17.80;;
18280;SDS011;9266;51.132;17.062;2023-02-13T07:39:30;28.63;;;16.83;;
18280;SDS011;9266;51.132;17.062;2023-02-13T07:41:57;28.23;;;18.40;;
18280;SDS011;9266;51.132;17.062;2023-02-13T07:44:24;26.47;;;17.63;;
18280;SDS011;9266;51.132;17.062;2023-02-13T07:46:51;26.80;;;18.07;;
18280;SDS011;9266;51.132;17.062;2023-02-13T07:49:20;29.40;;;18.80;;
18280;SDS011;9266;51.132;17.062;2023-02-13T07:51:47;31.63;;;18.57;;
18280;SDS011;9266;51.132;17.062;2023-02-13T07:54:14;30.37;;;19.30;;
18280;SDS011;9266;51.132;17.062;2023-02-13T07:56:41;28.27;;;18.13;;
18280;SDS011;9266;51.132;17.062;2023-02-13T07:59:09;27.67;;;18.93;;
18280;SDS011;9266;51.132;17.062;2023-02-13T08:01:36;29.13;;;19.47;;
18280;SDS011;9266;51.132;17.062;2023-02-13T08:04:03;32.67;;;19.60;;
18280;SDS011;9266;51.132;17.062;2023-02-13T08:06:32;33.67;;;20.53;;
18280;SDS011;9266;51.132;17.062;2023-02-13T08:08:59;33.03;;;20.20;;
18280;SDS011;9266;51.132;17.062;2023-02-13T08:11:43;32.93;;;20.83;;
18280;SDS011;9266;51.132;17.062;2023-02-13T08:14:19;32.03;;;21.17;;
18280;SDS011;9266;51.132;17.062;2023-02-13T08:16:47;32.47;;;20.77;;
18280;SDS011;9266;51.132;17.062;2023-02-13T08:19:14;32.03;;;20.43;;
18280;SDS011;9266;51.132;17.062;2023-02-13T08:21:44;31.73;;;20.03;;
18280;SDS011;9266;51.132;17.062;2023-02-13T08:24:11;31.97;;;20.77;;
18280;SDS011;9266;51.132;17.062;2023-02-13T08:26:38;31.67;;;20.67;;
18280;SDS011;9266;51.132;17.062;2023-02-13T08:29:05;34.07;;;20.60;;
18280;SDS011;9266;51.132;17.062;2023-02-13T08:31:33;30.20;;;19.47;;
18280;SDS011;9266;51.132;17.062;2023-02-13T08:34:00;35.10;;;20.97;;
18280;SDS011;9266;51.132;17.062;2023-02-13T08:36:27;33.03;;;19.50;;
18280;SDS011;9266;51.132;17.062;2023-02-13T08:38:55;31.47;;;18.97;;
18280;SDS011;9266;51.132;17.062;2023-02-13T08:41:22;31.97;;;20.43;;
18280;SDS011;9266;51.132;17.062;2023-02-13T08:43:49;34.37;;;20.00;;
18280;SDS011;9266;51.132;17.062;2023-02-13T08:46:17;33.07;;;19.00;;
18280;SDS011;9266;51.132;17.062;2023-02-13T08:48:45;36.73;;;20.27;;
18280;SDS011;9266;51.132;17.062;2023-02-13T08:51:12;36.47;;;19.80;;
18280;SDS011;9266;51.132;17.062;2023-02-13T08:53:40;36.77;;;20.37;;
18280;SDS011;9266;51.132;17.062;2023-02-13T08:56:09;34.57;;;19.47;;
18280;SDS011;9266;51.132;17.062;2023-02-13T08:58:36;32.00;;;18.97;;
18280;SDS011;9266;51.132;17.062;2023-02-13T09:01:04;31.53;;;18.70;;
18280;SDS011;9266;51.132;17.062;2023-02-13T09:03:33;29.80;;;18.60;;
18280;SDS011;9266;51.132;17.062;2023-02-13T09:06:01;35.63;;;18.60;;
18280;SDS011;9266;51.132;17.062;2023-02-13T09:08:29;27.83;;;16.57;;
18280;SDS011;9266;51.132;17.062;2023-02-13T09:10:56;29.87;;;16.50;;
18280;SDS011;9266;51.132;17.062;2023-02-13T09:13:26;23.37;;;13.27;;
18280;SDS011;9266;51.132;17.062;2023-02-13T09:15:56;24.67;;;14.63;;
18280;SDS011;9266;51.132;17.062;2023-02-13T09:18:25;21.80;;;13.73;;
18280;SDS011;9266;51.132;17.062;2023-02-13T09:20:59;19.90;;;13.00;;
18280;SDS011;9266;51.132;17.062;2023-02-13T09:23:29;18.50;;;12.53;;
18280;SDS011;9266;51.132;17.062;2023-02-13T09:25:57;13.30;;;9.33;;
18280;SDS011;9266;51.132;17.062;2023-02-13T09:28:27;9.30;;;7.90;;
18280;SDS011;9266;51.132;17.062;2023-02-13T09:30:55;7.60;;;6.17;;
18280;SDS011;9266;51.132;17.062;2023-02-13T09:33:22;6.93;;;5.73;;
18280;SDS011;9266;51.132;17.062;2023-02-13T09:35:49;7.40;;;5.00;;
18280;SDS011;9266;51.132;17.062;2023-02-13T09:38:16;6.63;;;4.70;;
18280;SDS011;9266;51.132;17.062;2023-02-13T09:40:44;5.83;;;4.40;;
18280;SDS011;9266;51.132;17.062;2023-02-13T09:43:17;6.20;;;4.97;;
18280;SDS011;9266;51.132;17.062;2023-02-13T09:45:53;5.63;;;4.90;;
18280;SDS011;9266;51.132;17.062;2023-02-13T09:48:25;5.70;;;4.77;;
18280;SDS011;9266;51.132;17.062;2023-02-13T09:50:55;5.57;;;4.80;;
18280;SDS011;9266;51.132;17.062;2023-02-13T09:53:23;8.00;;;5.13;;
18280;SDS011;9266;51.132;17.062;2023-02-13T09:56:03;6.77;;;5.40;;
18280;SDS011;9266;51.132;17.062;2023-02-13T09:58:37;5.87;;;5.10;;
18280;SDS011;9266;51.132;17.062;2023-02-13T10:01:14;6.30;;;4.90;;
18280;SDS011;9266;51.132;17.062;2023-02-13T10:03:49;7.07;;;5.93;;
18280;SDS011;9266;51.132;17.062;2023-02-13T10:06:34;6.93;;;5.10;;
18280;SDS011;9266;51.132;17.062;2023-02-13T10:09:15;6.13;;;5.27;;
18280;SDS011;9266;51.132;17.062;2023-02-13T10:11:56;6.63;;;5.50;;
18280;SDS011;9266;51.132;17.062;2023-02-13T10:14:41;6.77;;;4.90;;
18280;SDS011;9266;51.132;17.062;2023-02-13T10:17:16;5.60;;;4.77;;
18280;SDS011;9266;51.132;17.062;2023-02-13T10:19:49;5.93;;;4.37;;
18280;SDS011;9266;51.132;17.062;2023-02-13T10:22:22;8.90;;;5.20;;
18280;SDS011;9266;51.132;17.062;2023-02-13T10:24:55;7.60;;;5.30;;
18280;SDS011;9266;51.132;17.062;2023-02-13T10:27:27;8.90;;;5.33;;
18280;SDS011;9266;51.132;17.062;2023-02-13T10:30:02;7.07;;;4.67;;
18280;SDS011;9266;51.132;17.062;2023-02-13T10:32:40;4.93;;;4.23;;
18280;SDS011;9266;51.132;17.062;2023-02-13T10:35:17;5.83;;;4.27;;
18280;SDS011;9266;51.132;17.062;2023-02-13T10:37:48;6.53;;;4.27;;
18280;SDS011;9266;51.132;17.062;2023-02-13T10:40:19;4.77;;;3.93;;
18280;SDS011;9266;51.132;17.062;2023-02-13T10:42:51;7.23;;;4.13;;
18280;SDS011;9266;51.132;17.062;2023-02-13T10:45:32;5.90;;;4.83;;
18280;SDS011;9266;51.132;17.062;2023-02-13T10:48:25;8.30;;;4.20;;
18280;SDS011;9266;51.132;17.062;2023-02-13T10:51:05;5.50;;;4.00;;
18280;SDS011;9266;51.132;17.062;2023-02-13T10:53:42;5.50;;;3.90;;
18280;SDS011;9266;51.132;17.062;2023-02-13T10:56:25;4.63;;;4.10;;
18280;SDS011;9266;51.132;17.062;2023-02-13T10:59:04;5.07;;;4.20;;
18280;SDS011;9266;51.132;17.062;2023-02-13T11:01:41;5.10;;;4.30;;
18280;SDS011;9266;51.132;17.062;2023-02-13T11:04:17;7.23;;;4.30;;
18280;SDS011;9266;51.132;17.062;2023-02-13T11:06:46;5.57;;;4.10;;
18280;SDS011;9266;51.132;17.062;2023-02-13T11:09:17;7.40;;;4.77;;
18280;SDS011;9266;51.132;17.062;2023-02-13T11:11:45;5.10;;;4.10;;
18280;SDS011;9266;51.132;17.062;2023-02-13T11:14:13;5.90;;;4.50;;
18280;SDS011;9266;51.132;17.062;2023-02-13T11:16:44;6.37;;;4.57;;
18280;SDS011;9266;51.132;17.062;2023-02-13T11:19:23;5.80;;;4.93;;
18280;SDS011;9266;51.132;17.062;2023-02-13T11:21:55;7.47;;;4.37;;
18280;SDS011;9266;51.132;17.062;2023-02-13T11:24:25;6.97;;;4.80;;
18280;SDS011;9266;51.132;17.062;2023-02-13T11:26:56;7.63;;;4.93;;
18280;SDS011;9266;51.132;17.062;2023-02-13T11:29:26;7.23;;;4.70;;
18280;SDS011;9266;51.132;17.062;2023-02-13T11:32:17;5.80;;;4.23;;
18280;SDS011;9266;51.132;17.062;2023-02-13T11:34:47;5.47;;;4.70;;
18280;SDS011;9266;51.132;17.062;2023-02-13T11:37:18;6.10;;;4.37;;
18280;SDS011;9266;51.132;17.062;2023-02-13T11:39:47;6.03;;;4.97;;
18280;SDS011;9266;51.132;17.062;2023-02-13T11:42:16;7.23;;;4.40;;
18280;SDS011;9266;51.132;17.062;2023-02-13T11:44:48;5.33;;;4.63;;
18280;SDS011;9266;51.132;17.062;2023-02-13T11:47:28;5.50;;;4.90;;
18280;SDS011;9266;51.132;17.062;2023-02-13T11:50:06;4.63;;;3.93;;
18280;SDS011;9266;51.132;17.062;2023-02-13T11:52:51;4.33;;;3.90;;
18280;SDS011;9266;51.132;17.062;2023-02-13T11:55:29;6.63;;;4.13;;
18280;SDS011;9266;51.132;17.062;2023-02-13T11:57:58;7.00;;;4.57;;
18280;SDS011;9266;51.132;17.062;2023-02-13T12:00:36;5.17;;;3.90;;
18280;SDS011;9266;51.132;17.062;2023-02-13T12:06:02;6.17;;;3.97;;
18280;SDS011;9266;51.132;17.062;2023-02-13T12:08:31;4.93;;;3.90;;
18280;SDS011;9266;51.132;17.062;2023-02-13T12:10:59;5.23;;;4.10;;
18280;SDS011;9266;51.132;17.062;2023-02-13T12:13:30;4.73;;;4.23;;
18280;SDS011;9266;51.132;17.062;2023-02-13T12:16:02;5.33;;;4.23;;
18280;SDS011;9266;51.132;17.062;2023-02-13T12:18:36;4.93;;;4.47;;
18280;SDS011;9266;51.132;17.062;2023-02-13T12:21:12;4.67;;;4.27;;
18280;SDS011;9266;51.132;17.062;2023-02-13T12:23:52;4.47;;;3.83;;
18280;SDS011;9266;51.132;17.062;2023-02-13T12:26:28;5.27;;;4.77;;
18280;SDS011;9266;51.132;17.062;2023-02-13T12:29:09;6.23;;;4.33;;
18280;SDS011;9266;51.132;17.062;2023-02-13T12:31:52;5.33;;;4.10;;
18280;SDS011;9266;51.132;17.062;2023-02-13T12:37:39;6.60;;;4.90;;
18280;SDS011;9266;51.132;17.062;2023-02-13T12:40:25;5.87;;;4.87;;
18280;SDS011;9266;51.132;17.062;2023-02-13T12:45:58;5.73;;;5.17;;
18280;SDS011;9266;51.132;17.062;2023-02-13T12:48:32;5.00;;;4.50;;
18280;SDS011;9266;51.132;17.062;2023-02-13T12:51:16;5.30;;;4.50;;
18280;SDS011;9266;51.132;17.062;2023-02-13T12:53:57;4.47;;;3.90;;
18280;SDS011;9266;51.132;17.062;2023-02-13T12:56:49;5.00;;;4.00;;
18280;SDS011;9266;51.132;17.062;2023-02-13T12:59:30;4.40;;;3.97;;
18280;SDS011;9266;51.132;17.062;2023-02-13T13:02:19;5.87;;;4.47;;
18280;SDS011;9266;51.132;17.062;2023-02-13T13:05:06;4.40;;;4.00;;
18280;SDS011;9266;51.132;17.062;2023-02-13T13:10:42;7.10;;;4.63;;
18280;SDS011;9266;51.132;17.062;2023-02-13T13:13:25;4.50;;;4.10;;
18280;SDS011;9266;51.132;17.062;2023-02-13T13:16:01;4.37;;;3.97;;
18280;SDS011;9266;51.132;17.062;2023-02-13T13:18:35;5.27;;;4.27;;
18280;SDS011;9266;51.132;17.062;2023-02-13T13:21:20;5.00;;;4.17;;
18280;SDS011;9266;51.132;17.062;2023-02-13T13:24:02;5.77;;;4.90;;
18280;SDS011;9266;51.132;17.062;2023-02-13T13:26:37;5.97;;;4.23;;
18280;SDS011;9266;51.132;17.062;2023-02-13T13:29:09;4.50;;;4.10;;
18280;SDS011;9266;51.132;17.062;2023-02-13T13:31:39;4.73;;;4.23;;
18280;SDS011;9266;51.132;17.062;2023-02-13T13:34:16;6.07;;;4.60;;
18280;SDS011;9266;51.132;17.062;2023-02-13T13:36:49;5.10;;;4.23;;
18280;SDS011;9266;51.132;17.062;2023-02-13T13:39:26;5.03;;;4.33;;
18280;SDS011;9266;51.132;17.062;2023-02-13T13:42:03;5.93;;;4.53;;
18280;SDS011;9266;51.132;17.062;2023-02-13T13:44:52;5.40;;;4.80;;
18280;SDS011;9266;51.132;17.062;2023-02-13T13:47:35;5.37;;;4.87;;
18280;SDS011;9266;51.132;17.062;2023-02-13T13:50:16;6.87;;;5.47;;
18280;SDS011;9266;51.132;17.062;2023-02-13T13:53:08;6.20;;;4.97;;
18280;SDS011;9266;51.132;17.062;2023-02-13T13:58:36;7.43;;;4.93;;
18280;SDS011;9266;51.132;17.062;2023-02-13T14:01:26;6.97;;;5.30;;
18280;SDS011;9266;51.132;17.062;2023-02-13T14:03:55;5.90;;;4.60;;
18280;SDS011;9266;51.132;17.062;2023-02-13T14:06:24;6.00;;;5.40;;
18280;SDS011;9266;51.132;17.062;2023-02-13T14:08:58;6.13;;;4.90;;
18280;SDS011;9266;51.132;17.062;2023-02-13T14:11:28;6.50;;;5.43;;
18280;SDS011;9266;51.132;17.062;2023-02-13T14:13:59;7.90;;;5.10;;
18280;SDS011;9266;51.132;17.062;2023-02-13T14:16:37;7.63;;;4.97;;
18280;SDS011;9266;51.132;17.062;2023-02-13T14:19:21;10.13;;;7.27;;
18280;SDS011;9266;51.132;17.062;2023-02-13T14:21:51;8.43;;;5.40;;
18280;SDS011;9266;51.132;17.062;2023-02-13T14:24:19;6.53;;;5.40;;
18280;SDS011;9266;51.132;17.062;2023-02-13T14:26:51;7.33;;;5.53;;
18280;SDS011;9266;51.132;17.062;2023-02-13T14:29:34;6.97;;;5.60;;
18280;SDS011;9266;51.132;17.062;2023-02-13T14:32:16;6.57;;;5.57;;
18280;SDS011;9266;51.132;17.062;2023-02-13T14:34:52;7.10;;;5.77;;
18280;SDS011;9266;51.132;17.062;2023-02-13T14:37:34;9.00;;;5.80;;
18280;SDS011;9266;51.132;17.062;2023-02-13T14:43:18;9.07;;;6.43;;
18280;SDS011;9266;51.132;17.062;2023-02-13T14:45:52;7.87;;;6.33;;
18280;SDS011;9266;51.132;17.062;2023-02-13T14:48:21;7.70;;;5.90;;
18280;SDS011;9266;51.132;17.062;2023-02-13T14:50:58;5.53;;;4.90;;
18280;SDS011;9266;51.132;17.062;2023-02-13T14:53:27;6.27;;;5.20;;
18280;SDS011;9266;51.132;17.062;2023-02-13T14:55:58;6.87;;;5.13;;
18280;SDS011;9266;51.132;17.062;2023-02-13T14:58:31;7.70;;;5.30;;
18280;SDS011;9266;51.132;17.062;2023-02-13T15:01:04;6.77;;;5.37;;
18280;SDS011;9266;51.132;17.062;2023-02-13T15:03:35;8.23;;;5.63;;
18280;SDS011;9266;51.132;17.062;2023-02-13T15:06:11;8.40;;;5.83;;
18280;SDS011;9266;51.132;17.062;2023-02-13T15:08:46;10.67;;;7.07;;
18280;SDS011;9266;51.132;17.062;2023-02-13T15:16:49;6.60;;;5.57;;
18280;SDS011;9266;51.132;17.062;2023-02-13T15:19:22;5.97;;;4.90;;
18280;SDS011;9266;51.132;17.062;2023-02-13T15:21:51;7.47;;;6.07;;
18280;SDS011;9266;51.132;17.062;2023-02-13T15:24:20;6.00;;;5.13;;
18280;SDS011;9266;51.132;17.062;2023-02-13T15:26:49;5.80;;;5.20;;
18280;SDS011;9266;51.132;17.062;2023-02-13T15:29:27;6.13;;;5.40;;
18280;SDS011;9266;51.132;17.062;2023-02-13T15:31:58;7.17;;;5.70;;
18280;SDS011;9266;51.132;17.062;2023-02-13T15:34:26;7.93;;;5.80;;
18280;SDS011;9266;51.132;17.062;2023-02-13T15:36:56;7.40;;;6.00;;